sensor_id;sensor_type;location;lat;lon;timestamp;P1;durP1;ratioP1;P2;durP2;ratioP2
12519;SDS011;6325;49.540;8.364;2023-08-01T00:01:34;3.25;;;3.00;;
12519;SDS011;6325;49.540;8.364;2023-08-01T00:04:01;2.80;;;2.60;;
12519;SDS011;6325;49.540;8.364;2023-08-01T00:06:29;2.75;;;2.55;;
12519;SDS011;6325;49.540;8.364;2023-08-01T00:08:56;2.83;;;2.63;;
12519;SDS011;6325;49.540;8.364;2023-08-01T00:11:23;3.08;;;2.75;;
12519;SDS011;6325;49.540;8.364;2023-08-01T00:13:51;2.90;;;2.70;;
12519;SDS011;6325;49.540;8.364;2023-08-01T00:16:18;2.80;;;2.60;;
12519;SDS011;6325;49.540;8.364;2023-08-01T00:18:45;2.50;;;2.30;;
12519;SDS011;6325;49.540;8.364;2023-08-01T00:21:12;2.73;;;2.53;;
12519;SDS011;6325;49.540;8.364;2023-08-01T00:23:40;2.70;;;2.55;;
12519;SDS011;6325;49.540;8.364;2023-08-01T00:26:08;2.58;;;2.38;;
12519;SDS011;6325;49.540;8.364;2023-08-01T00:28:35;3.40;;;3.10;;
12519;SDS011;6325;49.540;8.364;2023-08-01T00:31:03;3.05;;;2.78;;
12519;SDS011;6325;49.540;8.364;2023-08-01T00:33:30;2.97;;;2.67;;
12519;SDS011;6325;49.540;8.364;2023-08-01T00:35:57;3.08;;;2.80;;
12519;SDS011;6325;49.540;8.364;2023-08-01T00:38:24;3.28;;;2.97;;
12519;SDS011;6325;49.540;8.364;2023-08-01T00:40:52;3.20;;;2.90;;
12519;SDS011;6325;49.540;8.364;2023-08-01T00:43:20;3.00;;;2.80;;
12519;SDS011;6325;49.540;8.364;2023-08-01T00:45:47;3.40;;;3.10;;
12519;SDS011;6325;49.540;8.364;2023-08-01T00:48:14;3.22;;;3.00;;
12519;SDS011;6325;49.540;8.364;2023-08-01T00:50:43;3.22;;;2.95;;
12519;SDS011;6325;49.540;8.364;2023-08-01T00:53:11;3.00;;;2.80;;
12519;SDS011;6325;49.540;8.364;2023-08-01T00:55:39;3.20;;;3.00;;
12519;SDS011;6325;49.540;8.364;2023-08-01T00:58:07;3.38;;;3.08;;
12519;SDS011;6325;49.540;8.364;2023-08-01T01:00:35;3.03;;;2.83;;
12519;SDS011;6325;49.540;8.364;2023-08-01T01:03:03;2.90;;;2.70;;
12519;SDS011;6325;49.540;8.364;2023-08-01T01:05:31;3.40;;;3.10;;
12519;SDS011;6325;49.540;8.364;2023-08-01T01:08:02;3.45;;;3.15;;
12519;SDS011;6325;49.540;8.364;2023-08-01T01:10:29;3.35;;;3.05;;
12519;SDS011;6325;49.540;8.364;2023-08-01T01:12:56;3.45;;;3.15;;
12519;SDS011;6325;49.540;8.364;2023-08-01T01:15:25;3.50;;;3.20;;
12519;SDS011;6325;49.540;8.364;2023-08-01T01:17:52;3.45;;;3.15;;
12519;SDS011;6325;49.540;8.364;2023-08-01T01:20:22;3.70;;;3.40;;
12519;SDS011;6325;49.540;8.364;2023-08-01T01:22:51;3.40;;;3.20;;
12519;SDS011;6325;49.540;8.364;2023-08-01T01:25:19;3.42;;;3.13;;
12519;SDS011;6325;49.540;8.364;2023-08-01T01:27:46;3.35;;;2.80;;
12519;SDS011;6325;49.540;8.364;2023-08-01T01:30:15;3.30;;;3.10;;
12519;SDS011;6325;49.540;8.364;2023-08-01T01:32:42;3.25;;;2.97;;
12519;SDS011;6325;49.540;8.364;2023-08-01T01:35:09;3.13;;;2.90;;
12519;SDS011;6325;49.540;8.364;2023-08-01T01:37:36;3.47;;;3.20;;
12519;SDS011;6325;49.540;8.364;2023-08-01T01:40:06;3.67;;;3.38;;
12519;SDS011;6325;49.540;8.364;2023-08-01T01:42:34;3.50;;;3.20;;
12519;SDS011;6325;49.540;8.364;2023-08-01T01:45:01;3.40;;;3.10;;
12519;SDS011;6325;49.540;8.364;2023-08-01T01:47:28;3.60;;;3.30;;
12519;SDS011;6325;49.540;8.364;2023-08-01T01:49:55;3.25;;;2.97;;
12519;SDS011;6325;49.540;8.364;2023-08-01T01:52:23;3.17;;;2.97;;
12519;SDS011;6325;49.540;8.364;2023-08-01T01:54:50;3.13;;;2.92;;
12519;SDS011;6325;49.540;8.364;2023-08-01T01:57:18;3.47;;;3.17;;
12519;SDS011;6325;49.540;8.364;2023-08-01T01:59:45;4.00;;;3.30;;
12519;SDS011;6325;49.540;8.364;2023-08-01T02:02:12;3.25;;;2.97;;
12519;SDS011;6325;49.540;8.364;2023-08-01T02:04:40;3.33;;;3.03;;
12519;SDS011;6325;49.540;8.364;2023-08-01T02:07:07;3.35;;;3.05;;
12519;SDS011;6325;49.540;8.364;2023-08-01T02:09:34;3.33;;;3.03;;
12519;SDS011;6325;49.540;8.364;2023-08-01T02:12:01;2.63;;;2.53;;
12519;SDS011;6325;49.540;8.364;2023-08-01T02:14:31;3.05;;;2.75;;
12519;SDS011;6325;49.540;8.364;2023-08-01T02:16:58;2.85;;;2.65;;
12519;SDS011;6325;49.540;8.364;2023-08-01T02:19:25;2.70;;;2.50;;
12519;SDS011;6325;49.540;8.364;2023-08-01T02:21:52;2.75;;;2.55;;
12519;SDS011;6325;49.540;8.364;2023-08-01T02:24:20;3.08;;;2.85;;
12519;SDS011;6325;49.540;8.364;2023-08-01T02:26:47;3.83;;;3.00;;
12519;SDS011;6325;49.540;8.364;2023-08-01T02:29:15;3.00;;;2.80;;
12519;SDS011;6325;49.540;8.364;2023-08-01T02:31:43;2.97;;;2.78;;
12519;SDS011;6325;49.540;8.364;2023-08-01T02:34:10;3.03;;;2.83;;
12519;SDS011;6325;49.540;8.364;2023-08-01T02:36:37;3.00;;;2.80;;
12519;SDS011;6325;49.540;8.364;2023-08-01T02:39:05;2.90;;;2.58;;
12519;SDS011;6325;49.540;8.364;2023-08-01T02:41:32;2.83;;;2.63;;
12519;SDS011;6325;49.540;8.364;2023-08-01T02:44:00;2.70;;;2.50;;
12519;SDS011;6325;49.540;8.364;2023-08-01T02:46:27;3.00;;;2.70;;
12519;SDS011;6325;49.540;8.364;2023-08-01T02:48:57;2.95;;;2.75;;
12519;SDS011;6325;49.540;8.364;2023-08-01T02:51:24;3.00;;;2.80;;
12519;SDS011;6325;49.540;8.364;2023-08-01T02:53:51;2.80;;;2.60;;
12519;SDS011;6325;49.540;8.364;2023-08-01T02:56:19;3.08;;;2.78;;
12519;SDS011;6325;49.540;8.364;2023-08-01T02:58:46;3.17;;;2.88;;
12519;SDS011;6325;49.540;8.364;2023-08-01T03:01:13;3.08;;;2.80;;
12519;SDS011;6325;49.540;8.364;2023-08-01T03:03:41;4.00;;;3.10;;
12519;SDS011;6325;49.540;8.364;2023-08-01T03:06:09;3.30;;;3.00;;
12519;SDS011;6325;49.540;8.364;2023-08-01T03:08:37;3.23;;;2.90;;
12519;SDS011;6325;49.540;8.364;2023-08-01T03:11:05;3.13;;;2.85;;
12519;SDS011;6325;49.540;8.364;2023-08-01T03:13:32;2.93;;;2.73;;
12519;SDS011;6325;49.540;8.364;2023-08-01T03:15:59;2.90;;;2.70;;
12519;SDS011;6325;49.540;8.364;2023-08-01T03:18:26;3.10;;;2.80;;
12519;SDS011;6325;49.540;8.364;2023-08-01T03:20:53;3.83;;;2.63;;
12519;SDS011;6325;49.540;8.364;2023-08-01T03:23:22;2.90;;;2.60;;
12519;SDS011;6325;49.540;8.364;2023-08-01T03:25:49;3.08;;;2.83;;
12519;SDS011;6325;49.540;8.364;2023-08-01T03:28:16;2.72;;;2.53;;
12519;SDS011;6325;49.540;8.364;2023-08-01T03:30:43;3.30;;;2.67;;
12519;SDS011;6325;49.540;8.364;2023-08-01T03:33:11;3.05;;;2.75;;
12519;SDS011;6325;49.540;8.364;2023-08-01T03:35:38;2.70;;;2.50;;
12519;SDS011;6325;49.540;8.364;2023-08-01T03:38:05;2.53;;;2.33;;
12519;SDS011;6325;49.540;8.364;2023-08-01T03:40:34;2.70;;;2.50;;
12519;SDS011;6325;49.540;8.364;2023-08-01T03:43:01;2.60;;;2.40;;
12519;SDS011;6325;49.540;8.364;2023-08-01T03:45:28;2.65;;;2.30;;
12519;SDS011;6325;49.540;8.364;2023-08-01T03:47:55;2.72;;;2.53;;
12519;SDS011;6325;49.540;8.364;2023-08-01T03:50:23;2.40;;;2.20;;
12519;SDS011;6325;49.540;8.364;2023-08-01T03:52:50;2.60;;;2.40;;
12519;SDS011;6325;49.540;8.364;2023-08-01T03:55:17;2.50;;;2.30;;
12519;SDS011;6325;49.540;8.364;2023-08-01T03:57:45;2.40;;;2.20;;
12519;SDS011;6325;49.540;8.364;2023-08-01T04:00:13;2.38;;;2.17;;
12519;SDS011;6325;49.540;8.364;2023-08-01T04:02:43;2.33;;;2.17;;
12519;SDS011;6325;49.540;8.364;2023-08-01T04:05:10;2.25;;;2.15;;
12519;SDS011;6325;49.540;8.364;2023-08-01T04:07:37;2.10;;;2.00;;
12519;SDS011;6325;49.540;8.364;2023-08-01T04:10:05;2.40;;;2.20;;
12519;SDS011;6325;49.540;8.364;2023-08-01T04:12:33;2.35;;;2.20;;
12519;SDS011;6325;49.540;8.364;2023-08-01T04:15:02;2.20;;;2.10;;
12519;SDS011;6325;49.540;8.364;2023-08-01T04:17:29;2.40;;;2.30;;
12519;SDS011;6325;49.540;8.364;2023-08-01T04:19:56;3.10;;;2.40;;
12519;SDS011;6325;49.540;8.364;2023-08-01T04:22:23;2.10;;;2.00;;
12519;SDS011;6325;49.540;8.364;2023-08-01T04:24:50;2.53;;;2.22;;
12519;SDS011;6325;49.540;8.364;2023-08-01T04:27:17;2.40;;;2.20;;
12519;SDS011;6325;49.540;8.364;2023-08-01T04:29:45;2.40;;;2.20;;
12519;SDS011;6325;49.540;8.364;2023-08-01T04:32:13;2.88;;;2.28;;
12519;SDS011;6325;49.540;8.364;2023-08-01T04:34:40;2.45;;;2.25;;
12519;SDS011;6325;49.540;8.364;2023-08-01T04:37:07;2.40;;;2.20;;
12519;SDS011;6325;49.540;8.364;2023-08-01T04:39:35;2.47;;;2.28;;
12519;SDS011;6325;49.540;8.364;2023-08-01T04:42:02;2.50;;;2.30;;
12519;SDS011;6325;49.540;8.364;2023-08-01T04:44:30;2.40;;;2.20;;
12519;SDS011;6325;49.540;8.364;2023-08-01T04:46:57;2.53;;;2.20;;
12519;SDS011;6325;49.540;8.364;2023-08-01T04:49:25;2.30;;;2.20;;
12519;SDS011;6325;49.540;8.364;2023-08-01T04:51:52;2.47;;;2.17;;
12519;SDS011;6325;49.540;8.364;2023-08-01T04:54:19;2.70;;;2.50;;
12519;SDS011;6325;49.540;8.364;2023-08-01T04:56:47;2.50;;;2.30;;
12519;SDS011;6325;49.540;8.364;2023-08-01T04:59:14;3.60;;;3.30;;
12519;SDS011;6325;49.540;8.364;2023-08-01T05:01:41;3.00;;;2.78;;
12519;SDS011;6325;49.540;8.364;2023-08-01T05:04:08;2.70;;;2.50;;
12519;SDS011;6325;49.540;8.364;2023-08-01T05:06:36;3.17;;;2.50;;
12519;SDS011;6325;49.540;8.364;2023-08-01T05:09:05;2.70;;;2.50;;
12519;SDS011;6325;49.540;8.364;2023-08-01T05:11:32;2.55;;;2.35;;
12519;SDS011;6325;49.540;8.364;2023-08-01T05:14:00;2.35;;;2.17;;
12519;SDS011;6325;49.540;8.364;2023-08-01T05:16:27;2.22;;;2.13;;
12519;SDS011;6325;49.540;8.364;2023-08-01T05:18:54;2.55;;;2.40;;
12519;SDS011;6325;49.540;8.364;2023-08-01T05:21:21;2.85;;;2.65;;
12519;SDS011;6325;49.540;8.364;2023-08-01T05:23:49;3.10;;;2.90;;
12519;SDS011;6325;49.540;8.364;2023-08-01T05:26:17;2.93;;;2.73;;
12519;SDS011;6325;49.540;8.364;2023-08-01T05:28:44;2.95;;;2.75;;
12519;SDS011;6325;49.540;8.364;2023-08-01T05:31:11;2.97;;;2.78;;
12519;SDS011;6325;49.540;8.364;2023-08-01T05:33:38;3.30;;;3.10;;
12519;SDS011;6325;49.540;8.364;2023-08-01T05:36:05;3.40;;;3.17;;
12519;SDS011;6325;49.540;8.364;2023-08-01T05:38:32;3.22;;;3.00;;
12519;SDS011;6325;49.540;8.364;2023-08-01T05:41:01;3.10;;;2.80;;
12519;SDS011;6325;49.540;8.364;2023-08-01T05:43:28;3.63;;;3.33;;
12519;SDS011;6325;49.540;8.364;2023-08-01T05:45:55;3.58;;;3.30;;
12519;SDS011;6325;49.540;8.364;2023-08-01T05:48:22;3.40;;;3.10;;
12519;SDS011;6325;49.540;8.364;2023-08-01T05:50:49;3.60;;;3.30;;
12519;SDS011;6325;49.540;8.364;2023-08-01T05:53:18;3.40;;;3.20;;
12519;SDS011;6325;49.540;8.364;2023-08-01T05:55:45;3.75;;;3.45;;
12519;SDS011;6325;49.540;8.364;2023-08-01T05:58:13;3.30;;;3.10;;
12519;SDS011;6325;49.540;8.364;2023-08-01T06:00:41;3.67;;;3.40;;
12519;SDS011;6325;49.540;8.364;2023-08-01T06:03:08;3.40;;;3.20;;
12519;SDS011;6325;49.540;8.364;2023-08-01T06:05:35;3.55;;;3.28;;
12519;SDS011;6325;49.540;8.364;2023-08-01T06:08:03;3.70;;;3.40;;
12519;SDS011;6325;49.540;8.364;2023-08-01T06:10:30;3.60;;;3.17;;
12519;SDS011;6325;49.540;8.364;2023-08-01T06:12:58;3.17;;;2.97;;
12519;SDS011;6325;49.540;8.364;2023-08-01T06:15:26;3.63;;;3.33;;
12519;SDS011;6325;49.540;8.364;2023-08-01T06:17:53;3.40;;;3.20;;
12519;SDS011;6325;49.540;8.364;2023-08-01T06:20:21;3.50;;;3.20;;
12519;SDS011;6325;49.540;8.364;2023-08-01T06:22:48;3.75;;;3.50;;
12519;SDS011;6325;49.540;8.364;2023-08-01T06:25:15;3.90;;;3.50;;
12519;SDS011;6325;49.540;8.364;2023-08-01T06:27:42;3.70;;;3.40;;
12519;SDS011;6325;49.540;8.364;2023-08-01T06:30:09;3.75;;;3.45;;
12519;SDS011;6325;49.540;8.364;2023-08-01T06:32:38;3.65;;;3.45;;
12519;SDS011;6325;49.540;8.364;2023-08-01T06:35:06;3.42;;;3.15;;
12519;SDS011;6325;49.540;8.364;2023-08-01T06:37:33;3.20;;;3.00;;
12519;SDS011;6325;49.540;8.364;2023-08-01T06:40:00;3.55;;;3.25;;
12519;SDS011;6325;49.540;8.364;2023-08-01T06:42:28;3.58;;;3.28;;
12519;SDS011;6325;49.540;8.364;2023-08-01T06:44:55;3.55;;;3.28;;
12519;SDS011;6325;49.540;8.364;2023-08-01T06:47:22;3.60;;;3.30;;
12519;SDS011;6325;49.540;8.364;2023-08-01T06:49:50;3.58;;;3.28;;
12519;SDS011;6325;49.540;8.364;2023-08-01T06:52:17;3.10;;;2.90;;
12519;SDS011;6325;49.540;8.364;2023-08-01T06:54:44;3.25;;;3.05;;
12519;SDS011;6325;49.540;8.364;2023-08-01T06:57:12;3.05;;;2.80;;
12519;SDS011;6325;49.540;8.364;2023-08-01T06:59:39;2.90;;;2.70;;
12519;SDS011;6325;49.540;8.364;2023-08-01T07:02:06;2.20;;;2.10;;
12519;SDS011;6325;49.540;8.364;2023-08-01T07:04:33;2.35;;;2.17;;
12519;SDS011;6325;49.540;8.364;2023-08-01T07:07:02;1.92;;;1.80;;
12519;SDS011;6325;49.540;8.364;2023-08-01T07:09:29;1.63;;;1.52;;
12519;SDS011;6325;49.540;8.364;2023-08-01T07:11:56;1.70;;;1.60;;
12519;SDS011;6325;49.540;8.364;2023-08-01T07:14:23;1.80;;;1.70;;
12519;SDS011;6325;49.540;8.364;2023-08-01T07:16:50;1.45;;;1.40;;
12519;SDS011;6325;49.540;8.364;2023-08-01T07:19:18;1.50;;;1.40;;
12519;SDS011;6325;49.540;8.364;2023-08-01T07:21:45;1.33;;;1.23;;
12519;SDS011;6325;49.540;8.364;2023-08-01T07:24:15;1.30;;;1.30;;
12519;SDS011;6325;49.540;8.364;2023-08-01T07:26:42;1.30;;;1.20;;
12519;SDS011;6325;49.540;8.364;2023-08-01T07:29:09;1.30;;;1.27;;
12519;SDS011;6325;49.540;8.364;2023-08-01T07:31:40;1.17;;;1.17;;
12519;SDS011;6325;49.540;8.364;2023-08-01T07:34:07;1.20;;;1.20;;
12519;SDS011;6325;49.540;8.364;2023-08-01T07:36:34;1.20;;;1.20;;
12519;SDS011;6325;49.540;8.364;2023-08-01T07:39:02;1.10;;;1.10;;
12519;SDS011;6325;49.540;8.364;2023-08-01T07:41:30;1.30;;;1.20;;
12519;SDS011;6325;49.540;8.364;2023-08-01T07:44:00;1.70;;;1.10;;
12519;SDS011;6325;49.540;8.364;2023-08-01T07:46:28;1.20;;;1.20;;
12519;SDS011;6325;49.540;8.364;2023-08-01T07:48:55;1.92;;;1.83;;
12519;SDS011;6325;49.540;8.364;2023-08-01T07:51:22;2.80;;;2.38;;
12519;SDS011;6325;49.540;8.364;2023-08-01T07:53:50;1.83;;;1.73;;
12519;SDS011;6325;49.540;8.364;2023-08-01T07:56:17;2.63;;;2.42;;
12519;SDS011;6325;49.540;8.364;2023-08-01T07:58:46;1.92;;;1.83;;
12519;SDS011;6325;49.540;8.364;2023-08-01T08:01:13;2.58;;;2.33;;
12519;SDS011;6325;49.540;8.364;2023-08-01T08:03:40;5.07;;;4.05;;
12519;SDS011;6325;49.540;8.364;2023-08-01T08:06:08;4.20;;;3.08;;
12519;SDS011;6325;49.540;8.364;2023-08-01T08:08:35;5.13;;;4.17;;
12519;SDS011;6325;49.540;8.364;2023-08-01T08:11:02;7.68;;;5.43;;
12519;SDS011;6325;49.540;8.364;2023-08-01T08:13:30;5.97;;;4.50;;
12519;SDS011;6325;49.540;8.364;2023-08-01T08:15:58;4.60;;;3.50;;
12519;SDS011;6325;49.540;8.364;2023-08-01T08:18:25;1.15;;;1.15;;
12519;SDS011;6325;49.540;8.364;2023-08-01T08:20:53;1.10;;;1.10;;
12519;SDS011;6325;49.540;8.364;2023-08-01T08:23:20;0.60;;;0.60;;
12519;SDS011;6325;49.540;8.364;2023-08-01T08:25:47;1.50;;;1.40;;
12519;SDS011;6325;49.540;8.364;2023-08-01T08:28:15;5.30;;;3.85;;
12519;SDS011;6325;49.540;8.364;2023-08-01T08:30:42;4.90;;;3.60;;
12519;SDS011;6325;49.540;8.364;2023-08-01T08:33:17;6.97;;;4.75;;
12519;SDS011;6325;49.540;8.364;2023-08-01T08:35:44;4.82;;;3.90;;
12519;SDS011;6325;49.540;8.364;2023-08-01T08:38:11;5.30;;;4.10;;
12519;SDS011;6325;49.540;8.364;2023-08-01T08:40:39;5.65;;;4.50;;
12519;SDS011;6325;49.540;8.364;2023-08-01T08:43:07;8.90;;;6.57;;
12519;SDS011;6325;49.540;8.364;2023-08-01T08:45:34;6.82;;;4.68;;
12519;SDS011;6325;49.540;8.364;2023-08-01T08:48:02;7.45;;;5.10;;
12519;SDS011;6325;49.540;8.364;2023-08-01T08:50:37;5.00;;;3.50;;
12519;SDS011;6325;49.540;8.364;2023-08-01T08:53:05;3.80;;;3.38;;
12519;SDS011;6325;49.540;8.364;2023-08-01T08:55:37;2.55;;;2.00;;
12519;SDS011;6325;49.540;8.364;2023-08-01T08:58:05;3.40;;;2.38;;
12519;SDS011;6325;49.540;8.364;2023-08-01T09:00:33;5.85;;;4.47;;
12519;SDS011;6325;49.540;8.364;2023-08-01T09:03:02;4.70;;;3.28;;
12519;SDS011;6325;49.540;8.364;2023-08-01T09:05:30;1.80;;;1.70;;
12519;SDS011;6325;49.540;8.364;2023-08-01T09:08:01;3.60;;;2.90;;
12519;SDS011;6325;49.540;8.364;2023-08-01T09:10:30;0.60;;;0.60;;
12519;SDS011;6325;49.540;8.364;2023-08-01T09:12:58;3.67;;;2.88;;
12519;SDS011;6325;49.540;8.364;2023-08-01T09:15:25;2.35;;;1.90;;
12519;SDS011;6325;49.540;8.364;2023-08-01T09:17:54;0.60;;;0.60;;
12519;SDS011;6325;49.540;8.364;2023-08-01T09:20:25;1.60;;;1.50;;
12519;SDS011;6325;49.540;8.364;2023-08-01T09:22:52;0.80;;;0.80;;
12519;SDS011;6325;49.540;8.364;2023-08-01T09:25:30;0.70;;;0.70;;
12519;SDS011;6325;49.540;8.364;2023-08-01T09:27:57;1.52;;;1.42;;
12519;SDS011;6325;49.540;8.364;2023-08-01T09:30:25;0.70;;;0.70;;
12519;SDS011;6325;49.540;8.364;2023-08-01T09:32:53;1.60;;;1.30;;
12519;SDS011;6325;49.540;8.364;2023-08-01T09:35:20;1.33;;;0.82;;
12519;SDS011;6325;49.540;8.364;2023-08-01T09:37:47;0.70;;;0.70;;
12519;SDS011;6325;49.540;8.364;2023-08-01T09:40:15;4.50;;;3.30;;
12519;SDS011;6325;49.540;8.364;2023-08-01T09:42:44;3.30;;;2.58;;
12519;SDS011;6325;49.540;8.364;2023-08-01T09:45:11;2.47;;;2.05;;
12519;SDS011;6325;49.540;8.364;2023-08-01T09:47:40;1.20;;;0.90;;
12519;SDS011;6325;49.540;8.364;2023-08-01T09:50:08;0.70;;;0.70;;
12519;SDS011;6325;49.540;8.364;2023-08-01T09:52:35;0.70;;;0.70;;
12519;SDS011;6325;49.540;8.364;2023-08-01T09:55:03;0.70;;;0.70;;
12519;SDS011;6325;49.540;8.364;2023-08-01T09:57:30;0.77;;;0.70;;
12519;SDS011;6325;49.540;8.364;2023-08-01T09:59:58;0.70;;;0.70;;
12519;SDS011;6325;49.540;8.364;2023-08-01T10:02:26;0.70;;;0.70;;
12519;SDS011;6325;49.540;8.364;2023-08-01T10:04:56;0.88;;;0.88;;
12519;SDS011;6325;49.540;8.364;2023-08-01T10:07:25;0.73;;;0.73;;
12519;SDS011;6325;49.540;8.364;2023-08-01T10:09:53;0.87;;;0.87;;
12519;SDS011;6325;49.540;8.364;2023-08-01T10:12:22;0.77;;;0.70;;
12519;SDS011;6325;49.540;8.364;2023-08-01T10:14:52;0.57;;;0.57;;
12519;SDS011;6325;49.540;8.364;2023-08-01T10:17:21;0.87;;;0.87;;
12519;SDS011;6325;49.540;8.364;2023-08-01T10:19:48;2.33;;;1.73;;
12519;SDS011;6325;49.540;8.364;2023-08-01T10:22:16;3.00;;;2.70;;
12519;SDS011;6325;49.540;8.364;2023-08-01T10:24:44;2.42;;;2.03;;
12519;SDS011;6325;49.540;8.364;2023-08-01T10:27:12;4.75;;;3.38;;
12519;SDS011;6325;49.540;8.364;2023-08-01T10:29:39;6.07;;;4.20;;
12519;SDS011;6325;49.540;8.364;2023-08-01T10:32:06;3.10;;;2.50;;
12519;SDS011;6325;49.540;8.364;2023-08-01T10:34:35;5.70;;;3.92;;
12519;SDS011;6325;49.540;8.364;2023-08-01T10:37:01;3.60;;;2.97;;
12519;SDS011;6325;49.540;8.364;2023-08-01T10:39:29;3.55;;;2.70;;
12519;SDS011;6325;49.540;8.364;2023-08-01T10:41:56;1.70;;;1.25;;
12519;SDS011;6325;49.540;8.364;2023-08-01T10:44:24;1.23;;;1.10;;
12519;SDS011;6325;49.540;8.364;2023-08-01T10:46:51;2.45;;;1.90;;
12519;SDS011;6325;49.540;8.364;2023-08-01T10:49:19;4.72;;;3.50;;
12519;SDS011;6325;49.540;8.364;2023-08-01T10:51:49;3.60;;;2.90;;
12519;SDS011;6325;49.540;8.364;2023-08-01T10:54:20;3.67;;;2.85;;
12519;SDS011;6325;49.540;8.364;2023-08-01T10:56:48;7.47;;;5.03;;
12519;SDS011;6325;49.540;8.364;2023-08-01T10:59:15;5.88;;;4.95;;
12519;SDS011;6325;49.540;8.364;2023-08-01T11:01:43;5.83;;;4.50;;
12519;SDS011;6325;49.540;8.364;2023-08-01T11:04:14;4.05;;;3.45;;
12519;SDS011;6325;49.540;8.364;2023-08-01T11:06:42;7.93;;;5.75;;
12519;SDS011;6325;49.540;8.364;2023-08-01T11:09:16;7.55;;;5.32;;
12519;SDS011;6325;49.540;8.364;2023-08-01T11:11:43;7.03;;;4.80;;
12519;SDS011;6325;49.540;8.364;2023-08-01T11:14:11;6.45;;;4.53;;
12519;SDS011;6325;49.540;8.364;2023-08-01T11:16:38;5.15;;;4.28;;
12519;SDS011;6325;49.540;8.364;2023-08-01T11:19:06;9.07;;;6.43;;
12519;SDS011;6325;49.540;8.364;2023-08-01T11:21:44;5.68;;;3.90;;
12519;SDS011;6325;49.540;8.364;2023-08-01T11:24:11;2.97;;;1.88;;
12519;SDS011;6325;49.540;8.364;2023-08-01T11:26:41;3.90;;;3.08;;
12519;SDS011;6325;49.540;8.364;2023-08-01T11:29:09;8.13;;;5.53;;
12519;SDS011;6325;49.540;8.364;2023-08-01T11:31:36;6.00;;;4.30;;
12519;SDS011;6325;49.540;8.364;2023-08-01T11:34:03;6.15;;;3.90;;
12519;SDS011;6325;49.540;8.364;2023-08-01T11:36:30;3.97;;;2.97;;
12519;SDS011;6325;49.540;8.364;2023-08-01T11:38:59;5.85;;;4.35;;
12519;SDS011;6325;49.540;8.364;2023-08-01T11:41:26;7.63;;;5.27;;
12519;SDS011;6325;49.540;8.364;2023-08-01T11:43:55;4.05;;;3.08;;
12519;SDS011;6325;49.540;8.364;2023-08-01T11:46:22;6.65;;;4.70;;
12519;SDS011;6325;49.540;8.364;2023-08-01T11:48:49;6.80;;;4.80;;
12519;SDS011;6325;49.540;8.364;2023-08-01T11:51:16;6.45;;;4.80;;
12519;SDS011;6325;49.540;8.364;2023-08-01T11:53:43;5.63;;;3.58;;
12519;SDS011;6325;49.540;8.364;2023-08-01T11:56:19;4.30;;;3.10;;
12519;SDS011;6325;49.540;8.364;2023-08-01T11:58:47;2.60;;;2.17;;
12519;SDS011;6325;49.540;8.364;2023-08-01T12:01:16;3.90;;;3.13;;
12519;SDS011;6325;49.540;8.364;2023-08-01T12:03:43;5.20;;;3.70;;
12519;SDS011;6325;49.540;8.364;2023-08-01T12:06:10;3.88;;;3.05;;
12519;SDS011;6325;49.540;8.364;2023-08-01T12:08:38;4.05;;;3.05;;
12519;SDS011;6325;49.540;8.364;2023-08-01T12:11:05;5.20;;;3.70;;
12519;SDS011;6325;49.540;8.364;2023-08-01T12:13:43;5.40;;;3.75;;
12519;SDS011;6325;49.540;8.364;2023-08-01T12:16:09;6.22;;;4.40;;
12519;SDS011;6325;49.540;8.364;2023-08-01T12:18:38;5.78;;;4.25;;
12519;SDS011;6325;49.540;8.364;2023-08-01T12:21:05;3.72;;;2.90;;
12519;SDS011;6325;49.540;8.364;2023-08-01T12:23:35;5.73;;;4.70;;
12519;SDS011;6325;49.540;8.364;2023-08-01T12:26:02;5.07;;;3.22;;
12519;SDS011;6325;49.540;8.364;2023-08-01T12:28:28;7.38;;;4.65;;
12519;SDS011;6325;49.540;8.364;2023-08-01T12:30:55;5.35;;;4.07;;
12519;SDS011;6325;49.540;8.364;2023-08-01T12:33:23;4.93;;;3.80;;
12519;SDS011;6325;49.540;8.364;2023-08-01T12:35:52;2.53;;;1.70;;
12519;SDS011;6325;49.540;8.364;2023-08-01T12:38:18;3.25;;;2.40;;
12519;SDS011;6325;49.540;8.364;2023-08-01T12:40:45;3.90;;;3.20;;
12519;SDS011;6325;49.540;8.364;2023-08-01T12:43:12;3.75;;;3.25;;
12519;SDS011;6325;49.540;8.364;2023-08-01T12:45:39;3.80;;;2.97;;
12519;SDS011;6325;49.540;8.364;2023-08-01T12:48:06;5.15;;;3.85;;
12519;SDS011;6325;49.540;8.364;2023-08-01T12:50:33;5.60;;;3.53;;
12519;SDS011;6325;49.540;8.364;2023-08-01T12:53:01;3.30;;;3.00;;
12519;SDS011;6325;49.540;8.364;2023-08-01T12:55:28;3.95;;;3.20;;
12519;SDS011;6325;49.540;8.364;2023-08-01T12:57:54;4.23;;;3.27;;
12519;SDS011;6325;49.540;8.364;2023-08-01T13:00:21;2.40;;;2.20;;
12519;SDS011;6325;49.540;8.364;2023-08-01T13:02:48;6.70;;;4.68;;
12519;SDS011;6325;49.540;8.364;2023-08-01T13:05:15;1.90;;;1.80;;
12519;SDS011;6325;49.540;8.364;2023-08-01T13:07:44;1.85;;;1.60;;
12519;SDS011;6325;49.540;8.364;2023-08-01T13:10:13;4.90;;;3.40;;
12519;SDS011;6325;49.540;8.364;2023-08-01T13:12:39;4.32;;;2.40;;
12519;SDS011;6325;49.540;8.364;2023-08-01T13:15:06;4.22;;;3.40;;
12519;SDS011;6325;49.540;8.364;2023-08-01T13:17:34;4.93;;;3.33;;
12519;SDS011;6325;49.540;8.364;2023-08-01T13:20:00;4.20;;;2.38;;
12519;SDS011;6325;49.540;8.364;2023-08-01T13:22:28;2.80;;;2.20;;
12519;SDS011;6325;49.540;8.364;2023-08-01T13:24:55;3.63;;;3.05;;
12519;SDS011;6325;49.540;8.364;2023-08-01T13:27:23;6.03;;;4.10;;
12519;SDS011;6325;49.540;8.364;2023-08-01T13:29:50;4.32;;;3.17;;
12519;SDS011;6325;49.540;8.364;2023-08-01T13:32:19;5.55;;;4.50;;
12519;SDS011;6325;49.540;8.364;2023-08-01T13:34:46;1.77;;;1.67;;
12519;SDS011;6325;49.540;8.364;2023-08-01T13:37:13;1.50;;;1.40;;
12519;SDS011;6325;49.540;8.364;2023-08-01T13:39:40;1.30;;;1.20;;
12519;SDS011;6325;49.540;8.364;2023-08-01T13:42:06;2.50;;;2.30;;
12519;SDS011;6325;49.540;8.364;2023-08-01T13:44:35;3.50;;;2.55;;
12519;SDS011;6325;49.540;8.364;2023-08-01T13:47:01;1.40;;;1.30;;
12519;SDS011;6325;49.540;8.364;2023-08-01T13:49:29;1.83;;;1.70;;
12519;SDS011;6325;49.540;8.364;2023-08-01T13:51:56;1.83;;;1.50;;
12519;SDS011;6325;49.540;8.364;2023-08-01T13:54:23;2.33;;;2.08;;
12519;SDS011;6325;49.540;8.364;2023-08-01T13:56:49;2.22;;;2.03;;
12519;SDS011;6325;49.540;8.364;2023-08-01T13:59:16;2.10;;;1.88;;
12519;SDS011;6325;49.540;8.364;2023-08-01T14:01:45;1.92;;;1.83;;
12519;SDS011;6325;49.540;8.364;2023-08-01T14:04:12;3.30;;;2.40;;
12519;SDS011;6325;49.540;8.364;2023-08-01T14:06:39;2.00;;;1.30;;
12519;SDS011;6325;49.540;8.364;2023-08-01T14:09:06;3.00;;;2.70;;
12519;SDS011;6325;49.540;8.364;2023-08-01T14:11:33;4.38;;;3.80;;
12519;SDS011;6325;49.540;8.364;2023-08-01T14:14:00;4.90;;;4.07;;
12519;SDS011;6325;49.540;8.364;2023-08-01T14:16:27;3.78;;;2.90;;
12519;SDS011;6325;49.540;8.364;2023-08-01T14:18:55;4.07;;;3.10;;
12519;SDS011;6325;49.540;8.364;2023-08-01T14:21:22;4.53;;;2.85;;
12519;SDS011;6325;49.540;8.364;2023-08-01T14:23:49;3.53;;;2.50;;
12519;SDS011;6325;49.540;8.364;2023-08-01T14:26:16;4.43;;;3.38;;
12519;SDS011;6325;49.540;8.364;2023-08-01T14:28:42;3.85;;;3.47;;
12519;SDS011;6325;49.540;8.364;2023-08-01T14:31:09;4.38;;;3.58;;
12519;SDS011;6325;49.540;8.364;2023-08-01T14:33:36;4.38;;;3.25;;
12519;SDS011;6325;49.540;8.364;2023-08-01T14:36:06;4.22;;;3.47;;
12519;SDS011;6325;49.540;8.364;2023-08-01T14:38:34;4.47;;;3.50;;
12519;SDS011;6325;49.540;8.364;2023-08-01T14:41:01;5.68;;;4.13;;
12519;SDS011;6325;49.540;8.364;2023-08-01T14:43:28;3.22;;;2.85;;
12519;SDS011;6325;49.540;8.364;2023-08-01T14:45:54;3.10;;;2.13;;
12519;SDS011;6325;49.540;8.364;2023-08-01T14:48:22;2.55;;;2.35;;
12519;SDS011;6325;49.540;8.364;2023-08-01T14:50:48;3.38;;;2.80;;
12519;SDS011;6325;49.540;8.364;2023-08-01T14:53:16;2.30;;;2.10;;
12519;SDS011;6325;49.540;8.364;2023-08-01T14:55:43;3.22;;;2.50;;
12519;SDS011;6325;49.540;8.364;2023-08-01T14:58:10;2.67;;;2.40;;
12519;SDS011;6325;49.540;8.364;2023-08-01T15:00:37;3.58;;;2.75;;
12519;SDS011;6325;49.540;8.364;2023-08-01T15:03:04;1.75;;;1.65;;